Time;durP1;ratioP1;P1;durP2;ratioP2;P2;SDS_P1;SDS_P2;PMS_P1;PMS_P2;Temp;Humidity;BMP_temperature;BMP_pressure;BME280_temperature;BME280_humidity;BME280_pressure;Samples;Min_cycle;Max_cycle;Signal;HPM_P1;HPM_P2
2023/03/09 00:00:17;;;;;;;;;;;;;;;6.76;82.97;94529.34;109109;1268;24209;-84
2023/03/09 00:03:15;;;;;;;;;;;;;;;6.74;82.99;94536.38;109052;1269;22496;-84
2023/03/09 00:05:45;;;;;;;;;;;;;;;6.72;82.95;94535.85;109061;1273;22528;-84
2023/03/09 00:08:14;;;;;;;;;;;;;;;6.81;82.99;94530.45;109042;1273;23273;-83
2023/03/09 00:10:44;;;;;;;;;;;;;;;6.85;82.87;94520.13;109056;1273;22508;-83
2023/03/09 00:13:13;;;;;;;;;;;;;;;6.88;82.71;94521.68;109069;1273;24209;-84
2023/03/09 00:15:43;;;;;;;;;;;;;;;6.86;82.58;94526.20;109076;1273;22508;-84
2023/03/09 00:18:13;;;;;;;;;;;;;;;6.82;82.54;94516.13;109074;1266;22541;-84
2023/03/09 00:20:43;;;;;;;;;;;;;;;6.77;82.92;94520.36;109072;1267;22489;-83
2023/03/09 00:23:12;;;;;;;;;;;;;;;6.74;83.37;94514.58;109059;1273;22800;-84
2023/03/09 00:25:42;;;;;;;;;;;;;;;6.76;83.22;94516.17;109083;1273;22455;-83
2023/03/09 00:28:12;;;;;;;;;;;;;;;6.76;83.34;94503.26;109097;1273;23250;-83
2023/03/09 00:30:42;;;;;;;;;;;;;;;6.81;83.25;94506.64;109099;1270;22582;-84
2023/03/09 00:33:11;;;;;;;;;;;;;;;6.85;83.18;94501.63;109078;1270;23839;-83
2023/03/09 00:35:41;;;;;;;;;;;;;;;6.88;83.11;94485.27;109094;1273;22527;-84
2023/03/09 00:38:11;;;;;;;;;;;;;;;6.85;82.97;94500.20;109072;1273;22502;-83
2023/03/09 00:40:40;;;;;;;;;;;;;;;6.86;83.15;94490.02;109086;1267;24406;-83
2023/03/09 00:43:09;;;;;;;;;;;;;;;6.84;82.94;94487.38;109039;1270;32521;-83
2023/03/09 00:45:39;;;;;;;;;;;;;;;6.81;83.29;94477.67;109063;1273;24362;-84
2023/03/09 00:48:08;;;;;;;;;;;;;;;6.83;83.40;94478.09;109111;1270;22491;-83
2023/03/09 00:50:38;;;;;;;;;;;;;;;6.85;83.46;94475.36;109092;1268;23743;-83
2023/03/09 00:53:07;;;;;;;;;;;;;;;6.86;83.23;94471.11;109054;1273;25301;-84
2023/03/09 00:55:37;;;;;;;;;;;;;;;6.85;83.38;94466.05;109055;1273;23756;-83
2023/03/09 00:58:06;;;;;;;;;;;;;;;6.91;83.33;94450.45;109054;1273;22608;-84
2023/03/09 01:00:35;;;;;;;;;;;;;;;6.95;83.46;94461.79;109091;1273;23050;-84
2023/03/09 01:03:05;;;;;;;;;;;;;;;6.95;83.42;94470.48;109044;1269;22426;-84
2023/03/09 01:05:34;;;;;;;;;;;;;;;7.01;83.43;94456.45;109077;1273;22485;-84
2023/03/09 01:08:04;;;;;;;;;;;;;;;7.02;83.18;94455.46;109037;1269;23744;-83
2023/03/09 01:10:33;;;;;;;;;;;;;;;7.03;83.11;94447.75;109052;1273;22495;-84
2023/03/09 01:13:03;;;;;;;;;;;;;;;7.09;82.93;94444.36;109046;1266;22535;-83
2023/03/09 01:15:32;;;;;;;;;;;;;;;7.14;82.49;94446.80;109093;1273;22491;-83
2023/03/09 01:18:02;;;;;;;;;;;;;;;7.17;82.23;94435.33;109070;1262;22563;-83
2023/03/09 01:20:32;;;;;;;;;;;;;;;7.19;81.82;94439.20;109043;1269;22503;-84
2023/03/09 01:23:01;;;;;;;;;;;;;;;7.19;81.64;94426.77;109015;1269;22492;-84
2023/03/09 01:25:30;;;;;;;;;;;;;;;7.20;81.35;94407.98;109092;1274;22619;-84
2023/03/09 01:28:00;;;;;;;;;;;;;;;7.21;81.19;94427.26;109032;1269;24214;-83
2023/03/09 01:30:29;;;;;;;;;;;;;;;7.21;81.04;94431.59;109083;1270;23661;-85
2023/03/09 01:32:59;;;;;;;;;;;;;;;7.14;80.81;94434.61;109063;1273;25396;-85
2023/03/09 01:35:28;;;;;;;;;;;;;;;7.08;81.00;94421.11;109069;1273;22495;-83
2023/03/09 01:37:57;;;;;;;;;;;;;;;7.03;81.30;94426.98;109071;1268;22957;-84
2023/03/09 01:40:27;;;;;;;;;;;;;;;7.04;81.71;94417.71;109061;1273;22519;-84
2023/03/09 01:42:57;;;;;;;;;;;;;;;7.03;81.57;94412.04;109069;1267;22522;-83
2023/03/09 01:45:44;;;;;;;;;;;;;;;7.06;81.67;94424.27;109145;1269;22454;-84
2023/03/09 01:48:13;;;;;;;;;;;;;;;7.04;81.60;94423.55;109074;1267;22509;-83
2023/03/09 01:50:43;;;;;;;;;;;;;;;7.09;81.64;94404.37;109074;1273;24282;-84
2023/03/09 01:53:15;;;;;;;;;;;;;;;7.17;81.36;94405.70;109041;1266;50067;-83
2023/03/09 01:55:47;;;;;;;;;;;;;;;7.19;81.10;94403.50;109073;1273;22530;-83
2023/03/09 01:58:18;;;;;;;;;;;;;;;7.27;80.84;94402.20;109064;1273;24209;-83
2023/03/09 02:00:49;;;;;;;;;;;;;;;7.32;80.68;94380.58;109095;1273;22532;-83
2023/03/09 02:03:20;;;;;;;;;;;;;;;7.27;80.51;94392.80;109002;1274;63604;-83
2023/03/09 02:05:55;;;;;;;;;;;;;;;7.16;80.93;94405.73;109045;1262;25001;-83
2023/03/09 02:08:26;;;;;;;;;;;;;;;7.14;81.28;94401.85;109079;1273;22467;-84
2023/03/09 02:10:57;;;;;;;;;;;;;;;7.16;81.35;94401.73;109052;1273;23784;-83
2023/03/09 02:13:29;;;;;;;;;;;;;;;7.21;81.45;94405.33;109064;1273;24257;-82
2023/03/09 02:15:58;;;;;;;;;;;;;;;7.32;81.23;94399.87;109054;1273;22530;-83
2023/03/09 02:18:28;;;;;;;;;;;;;;;7.35;81.32;94396.10;109092;1273;22491;-83
2023/03/09 02:21:00;;;;;;;;;;;;;;;7.39;81.39;94399.49;109091;1273;22524;-83
2023/03/09 02:23:33;;;;;;;;;;;;;;;7.43;81.26;94391.67;109037;1273;22657;-83
2023/03/09 02:26:07;;;;;;;;;;;;;;;7.43;81.66;94390.39;109070;1271;22978;-83
2023/03/09 02:28:36;;;;;;;;;;;;;;;7.40;81.76;94388.70;109077;1269;25393;-83
2023/03/09 02:31:06;;;;;;;;;;;;;;;7.40;82.04;94389.95;109080;1273;22529;-84
2023/03/09 02:33:35;;;;;;;;;;;;;;;7.42;81.95;94378.52;109073;1266;22486;-84
2023/03/09 02:36:05;;;;;;;;;;;;;;;7.41;82.28;94388.66;109047;1266;22515;-83
2023/03/09 02:38:34;;;;;;;;;;;;;;;7.40;82.25;94387.98;109076;1273;22673;-83
2023/03/09 02:41:05;;;;;;;;;;;;;;;7.35;82.60;94366.55;109083;1273;22494;-84
2023/03/09 02:43:37;;;;;;;;;;;;;;;7.33;82.60;94385.80;109022;1273;22500;-82
2023/03/09 02:46:06;;;;;;;;;;;;;;;7.31;82.58;94391.96;109038;1273;22533;-84
2023/03/09 02:48:36;;;;;;;;;;;;;;;7.32;82.29;94392.62;109035;1267;23808;-84
2023/03/09 02:51:06;;;;;;;;;;;;;;;7.37;82.00;94376.34;109088;1271;22496;-83
2023/03/09 02:53:36;;;;;;;;;;;;;;;7.45;81.72;94386.92;108985;1268;85049;-84
2023/03/09 02:56:05;;;;;;;;;;;;;;;7.42;81.41;94374.77;109065;1266;27112;-83
2023/03/09 02:58:35;;;;;;;;;;;;;;;7.36;81.46;94382.73;109074;1273;22536;-84
2023/03/09 03:01:04;;;;;;;;;;;;;;;7.36;81.27;94373.14;109128;1273;22499;-84
2023/03/09 03:03:33;;;;;;;;;;;;;;;7.30;81.14;94375.07;109070;1274;25201;-85
2023/03/09 03:06:03;;;;;;;;;;;;;;;7.21;81.13;94375.77;109037;1275;22675;-85
2023/03/09 03:08:32;;;;;;;;;;;;;;;7.21;81.31;94369.64;108914;1271;121237;-85
2023/03/09 03:11:01;;;;;;;;;;;;;;;7.18;81.13;94372.91;109007;1275;22551;-85
2023/03/09 03:13:31;;;;;;;;;;;;;;;7.17;81.58;94376.09;108994;1271;26080;-84
2023/03/09 03:16:00;;;;;;;;;;;;;;;7.25;81.63;94383.20;109003;1275;22478;-84
2023/03/09 03:18:31;;;;;;;;;;;;;;;7.33;81.66;94377.76;109030;1275;22569;-83
2023/03/09 03:21:00;;;;;;;;;;;;;;;7.51;81.30;94378.73;108961;1265;22924;-84
2023/03/09 03:23:29;;;;;;;;;;;;;;;7.56;80.94;94363.89;108974;1275;23926;-84
2023/03/09 03:26:04;;;;;;;;;;;;;;;7.62;80.85;94371.23;109017;1275;24947;-84
2023/03/09 03:28:33;;;;;;;;;;;;;;;7.65;80.77;94382.49;109018;1275;25257;-84
2023/03/09 03:31:02;;;;;;;;;;;;;;;7.64;80.87;94382.70;108971;1275;22510;-83
2023/03/09 03:33:32;;;;;;;;;;;;;;;7.65;80.88;94377.90;108910;1269;22903;-84
2023/03/09 03:36:01;;;;;;;;;;;;;;;7.65;81.13;94382.52;108988;1275;23859;-83
2023/03/09 03:38:31;;;;;;;;;;;;;;;7.68;81.18;94393.25;109057;1275;22780;-83
2023/03/09 03:41:00;;;;;;;;;;;;;;;7.64;81.68;94396.02;108980;1268;22498;-84
2023/03/09 03:43:30;;;;;;;;;;;;;;;7.60;81.90;94406.02;108973;1264;27828;-83
2023/03/09 03:45:59;;;;;;;;;;;;;;;7.54;82.17;94401.52;109005;1275;24491;-84
2023/03/09 03:48:28;;;;;;;;;;;;;;;7.46;82.33;94405.50;108978;1275;22487;-84
2023/03/09 03:50:58;;;;;;;;;;;;;;;7.42;82.45;94402.62;108989;1275;24224;-84
2023/03/09 03:53:28;;;;;;;;;;;;;;;7.39;82.69;94404.98;108978;1275;22446;-84
2023/03/09 03:55:58;;;;;;;;;;;;;;;7.33;83.11;94410.54;109032;1275;24386;-84
2023/03/09 03:58:27;;;;;;;;;;;;;;;7.28;83.56;94406.53;108999;1268;22496;-84
2023/03/09 04:00:57;;;;;;;;;;;;;;;7.23;83.56;94404.83;108982;1271;22519;-85
2023/03/09 04:03:30;;;;;;;;;;;;;;;7.21;83.89;94404.19;108949;1268;45077;-85
2023/03/09 04:05:59;;;;;;;;;;;;;;;7.17;84.15;94403.92;109071;1272;23640;-85
2023/03/09 04:08:29;;;;;;;;;;;;;;;7.12;84.34;94402.94;109073;1269;23175;-85
2023/03/09 04:10:59;;;;;;;;;;;;;;;7.08;84.31;94406.81;109060;1274;25423;-85
2023/03/09 04:13:28;;;;;;;;;;;;;;;7.06;84.83;94402.42;109074;1273;23184;-86
2023/03/09 04:15:58;;;;;;;;;;;;;;;7.02;84.85;94397.13;109066;1274;22549;-85
2023/03/09 04:18:27;;;;;;;;;;;;;;;6.98;85.15;94389.52;109116;1269;22525;-86
2023/03/09 04:20:57;;;;;;;;;;;;;;;6.97;85.12;94394.41;109077;1270;25392;-86
2023/03/09 04:23:26;;;;;;;;;;;;;;;6.95;85.14;94388.24;109062;1273;22509;-86
2023/03/09 04:25:57;;;;;;;;;;;;;;;6.92;85.31;94383.08;109104;1271;24320;-85
2023/03/09 04:28:26;;;;;;;;;;;;;;;6.89;85.53;94373.98;109076;1273;22628;-85
2023/03/09 04:30:56;;;;;;;;;;;;;;;6.87;85.77;94375.75;109058;1273;23939;-85
2023/03/09 04:33:25;;;;;;;;;;;;;;;6.84;85.99;94370.01;109075;1273;25392;-86
2023/03/09 04:35:54;;;;;;;;;;;;;;;6.85;85.95;94368.89;109107;1274;22961;-86
2023/03/09 04:38:24;;;;;;;;;;;;;;;6.83;85.88;94358.30;109123;1274;23000;-85
2023/03/09 04:40:53;;;;;;;;;;;;;;;6.87;85.84;94359.52;109076;1273;22861;-85
2023/03/09 04:43:22;;;;;;;;;;;;;;;6.88;85.71;94359.38;109018;1274;22495;-86
2023/03/09 04:45:52;;;;;;;;;;;;;;;6.86;85.81;94364.55;109070;1274;22567;-85
2023/03/09 04:48:21;;;;;;;;;;;;;;;6.84;85.86;94355.77;109062;1273;22620;-85
2023/03/09 04:50:51;;;;;;;;;;;;;;;6.83;85.84;94354.98;109109;1266;22661;-86
2023/03/09 04:53:20;;;;;;;;;;;;;;;6.85;86.04;94347.23;109034;1269;24148;-85
2023/03/09 04:55:49;;;;;;;;;;;;;;;6.91;86.26;94348.48;109098;1273;23778;-86
2023/03/09 04:58:19;;;;;;;;;;;;;;;6.91;86.23;94345.55;109065;1273;23201;-87
2023/03/09 05:00:48;;;;;;;;;;;;;;;6.90;86.31;94348.85;109138;1262;23717;-86
2023/03/09 05:03:17;;;;;;;;;;;;;;;6.90;86.22;94340.98;109077;1274;22526;-86
2023/03/09 05:05:47;;;;;;;;;;;;;;;6.93;86.27;94330.86;109104;1268;24806;-85
2023/03/09 05:08:18;;;;;;;;;;;;;;;6.93;85.87;94330.52;109054;1274;25240;-85
2023/03/09 05:10:47;;;;;;;;;;;;;;;7.00;86.01;94328.55;109123;1270;23002;-85
2023/03/09 05:13:17;;;;;;;;;;;;;;;7.06;85.65;94337.34;109136;1273;23252;-85
2023/03/09 05:15:46;;;;;;;;;;;;;;;7.22;84.83;94327.77;109086;1273;25704;-85
2023/03/09 05:18:15;;;;;;;;;;;;;;;7.38;84.38;94340.09;109120;1274;22492;-85
2023/03/09 05:20:45;;;;;;;;;;;;;;;7.42;83.99;94344.63;109085;1274;22489;-85
2023/03/09 05:23:15;;;;;;;;;;;;;;;7.45;83.62;94339.19;109019;1273;88911;-85
2023/03/09 05:25:44;;;;;;;;;;;;;;;7.54;83.24;94341.50;109126;1273;22542;-85
2023/03/09 05:28:13;;;;;;;;;;;;;;;7.56;83.04;94340.69;109079;1274;22636;-86
2023/03/09 05:30:43;;;;;;;;;;;;;;;7.61;82.60;94337.95;109103;1274;22492;-85
2023/03/09 05:33:12;;;;;;;;;;;;;;;7.62;82.44;94344.63;109099;1273;23808;-85
2023/03/09 05:35:42;;;;;;;;;;;;;;;7.62;82.26;94347.27;109090;1274;24828;-85
2023/03/09 05:38:12;;;;;;;;;;;;;;;7.62;81.99;94348.84;109113;1273;22515;-84
2023/03/09 05:40:42;;;;;;;;;;;;;;;7.64;81.80;94353.71;109082;1273;22617;-84
2023/03/09 05:43:11;;;;;;;;;;;;;;;7.64;81.78;94353.34;109053;1269;25326;-85
2023/03/09 05:45:40;;;;;;;;;;;;;;;7.63;81.66;94356.45;109069;1273;22429;-84
2023/03/09 05:48:11;;;;;;;;;;;;;;;7.64;81.61;94361.52;109106;1272;22488;-84
2023/03/09 05:50:40;;;;;;;;;;;;;;;7.63;81.51;94360.81;109078;1274;25608;-84
2023/03/09 05:53:09;;;;;;;;;;;;;;;7.65;81.37;94356.58;109131;1273;23206;-84
2023/03/09 05:55:39;;;;;;;;;;;;;;;7.71;81.15;94363.23;109092;1274;23084;-84
2023/03/09 05:58:08;;;;;;;;;;;;;;;7.72;81.19;94357.83;109099;1274;25192;-84
2023/03/09 06:00:38;;;;;;;;;;;;;;;7.72;81.06;94361.08;109086;1270;22484;-85
2023/03/09 06:03:07;;;;;;;;;;;;;;;7.74;80.83;94361.67;109054;1273;23241;-84
2023/03/09 06:05:36;;;;;;;;;;;;;;;7.74;80.92;94358.55;109127;1266;22903;-83
2023/03/09 06:08:06;;;;;;;;;;;;;;;7.79;80.83;94361.05;109082;1273;22487;-84
2023/03/09 06:10:36;;;;;;;;;;;;;;;7.82;80.70;94364.79;109056;1271;25246;-84
2023/03/09 06:13:06;;;;;;;;;;;;;;;7.80;80.59;94365.33;109097;1274;24298;-83
2023/03/09 06:15:37;;;;;;;;;;;;;;;7.82;80.65;94358.15;109068;1272;23314;-84
2023/03/09 06:18:07;;;;;;;;;;;;;;;7.83;80.74;94358.64;109092;1262;22739;-83
2023/03/09 06:20:37;;;;;;;;;;;;;;;7.82;80.73;94356.45;109063;1274;23820;-83
2023/03/09 06:23:07;;;;;;;;;;;;;;;7.82;80.86;94358.61;109093;1273;22496;-83
2023/03/09 06:25:36;;;;;;;;;;;;;;;7.81;80.79;94358.21;109075;1269;24191;-82
2023/03/09 06:28:06;;;;;;;;;;;;;;;7.81;80.88;94358.71;109095;1270;22469;-83
2023/03/09 06:30:39;;;;;;;;;;;;;;;7.80;80.91;94359.96;109100;1274;23291;-83
2023/03/09 06:33:08;;;;;;;;;;;;;;;7.78;81.02;94357.42;109074;1270;22547;-83
2023/03/09 06:35:39;;;;;;;;;;;;;;;7.81;81.11;94356.23;109111;1266;22509;-83
2023/03/09 06:38:09;;;;;;;;;;;;;;;7.82;81.21;94356.13;109091;1274;22637;-83
2023/03/09 06:40:38;;;;;;;;;;;;;;;7.86;81.32;94357.42;109072;1269;22489;-82
2023/03/09 06:43:08;;;;;;;;;;;;;;;7.93;81.32;94362.84;109070;1270;24313;-83
2023/03/09 06:45:37;;;;;;;;;;;;;;;8.01;81.42;94358.70;109111;1274;23123;-83
2023/03/09 06:48:06;;;;;;;;;;;;;;;8.07;81.21;94362.88;109032;1273;25392;-83
2023/03/09 06:50:36;;;;;;;;;;;;;;;8.12;81.21;94368.13;109085;1269;22487;-82
2023/03/09 06:53:05;;;;;;;;;;;;;;;8.13;81.22;94361.82;109083;1273;22505;-83
2023/03/09 06:55:36;;;;;;;;;;;;;;;8.11;81.03;94358.79;109125;1272;24187;-82
2023/03/09 06:58:05;;;;;;;;;;;;;;;8.12;81.19;94362.33;109123;1272;22540;-82
2023/03/09 07:00:38;;;;;;;;;;;;;;;8.16;81.26;94368.05;109103;1272;24858;-82
2023/03/09 07:03:10;;;;;;;;;;;;;;;8.20;81.24;94359.79;109004;1272;82400;-82
2023/03/09 07:05:40;;;;;;;;;;;;;;;8.25;81.44;94356.20;109087;1273;22486;-82
2023/03/09 07:08:09;;;;;;;;;;;;;;;8.31;81.39;94356.38;109065;1274;22488;-83
2023/03/09 07:10:39;;;;;;;;;;;;;;;8.38;81.18;94351.27;109080;1271;22486;-83
2023/03/09 07:13:12;;;;;;;;;;;;;;;8.50;81.49;94347.98;109114;1271;22485;-82
2023/03/09 07:15:42;;;;;;;;;;;;;;;8.93;81.47;94340.94;109115;1266;22503;-82
2023/03/09 07:18:12;;;;;;;;;;;;;;;9.67;80.74;94339.83;109069;1273;22521;-83
2023/03/09 07:20:42;;;;;;;;;;;;;;;10.10;78.60;94338.11;109098;1266;24221;-83
2023/03/09 07:23:11;;;;;;;;;;;;;;;9.78;77.25;94336.27;109047;1269;22542;-82
2023/03/09 07:25:41;;;;;;;;;;;;;;;9.50;77.19;94329.67;109100;1272;22515;-82
2023/03/09 07:28:11;;;;;;;;;;;;;;;9.34;77.61;94325.19;109109;1274;22601;-83
2023/03/09 07:30:40;;;;;;;;;;;;;;;9.26;77.55;94327.00;109103;1274;22491;-83
2023/03/09 07:33:10;;;;;;;;;;;;;;;9.27;77.64;94324.65;109046;1272;22978;-83
2023/03/09 07:35:40;;;;;;;;;;;;;;;9.42;77.53;94324.09;109069;1266;24278;-82
2023/03/09 07:38:09;;;;;;;;;;;;;;;9.55;77.24;94325.90;109104;1270;22499;-82
2023/03/09 07:40:39;;;;;;;;;;;;;;;9.79;76.83;94328.05;109102;1269;22536;-82
2023/03/09 07:43:10;;;;;;;;;;;;;;;9.93;76.57;94325.77;109061;1270;22499;-82
2023/03/09 07:45:40;;;;;;;;;;;;;;;9.83;75.39;94324.10;109072;1274;22502;-81
2023/03/09 07:48:11;;;;;;;;;;;;;;;9.67;75.04;94330.75;109057;1273;22520;-82
2023/03/09 07:50:40;;;;;;;;;;;;;;;9.55;75.42;94327.64;109097;1274;22673;-82
2023/03/09 07:53:09;;;;;;;;;;;;;;;9.41;75.52;94303.29;108990;1270;64005;-82
2023/03/09 07:55:39;;;;;;;;;;;;;;;9.26;76.16;94324.21;109089;1274;22436;-83
2023/03/09 07:58:08;;;;;;;;;;;;;;;9.10;76.68;94315.38;109122;1274;22537;-82
2023/03/09 08:00:38;;;;;;;;;;;;;;;8.92;77.71;94319.34;109115;1274;22489;-83
2023/03/09 08:03:07;;;;;;;;;;;;;;;8.76;78.50;94320.19;109058;1274;23135;-83
2023/03/09 08:05:36;;;;;;;;;;;;;;;8.69;79.35;94314.20;109098;1269;22588;-84
2023/03/09 08:08:07;;;;;;;;;;;;;;;8.67;79.89;94310.86;109110;1272;22514;-83
2023/03/09 08:10:37;;;;;;;;;;;;;;;8.53;80.74;94309.14;109063;1273;25418;-83
2023/03/09 08:13:06;;;;;;;;;;;;;;;8.47;81.18;94312.63;107789;1272;1788607;-83
2023/03/09 08:15:36;;;;;;;;;;;;;;;8.41;81.64;94302.52;109089;1273;24158;-82
2023/03/09 08:18:05;;;;;;;;;;;;;;;8.37;82.06;94307.02;109092;1274;22603;-83
2023/03/09 08:20:36;;;;;;;;;;;;;;;8.35;82.56;94313.67;109035;1266;23658;-83
2023/03/09 08:23:05;;;;;;;;;;;;;;;8.31;82.64;94317.15;109056;1274;22654;-83
2023/03/09 08:25:35;;;;;;;;;;;;;;;8.26;82.98;94320.48;109117;1273;22526;-83
2023/03/09 08:28:04;;;;;;;;;;;;;;;8.19;83.26;94326.20;109102;1272;22504;-84
2023/03/09 08:30:33;;;;;;;;;;;;;;;8.15;83.51;94325.27;109076;1272;23148;-84
2023/03/09 08:33:03;;;;;;;;;;;;;;;8.12;83.83;94328.38;109047;1273;22498;-84
2023/03/09 08:35:32;;;;;;;;;;;;;;;8.10;84.04;94317.91;109089;1273;24363;-83
2023/03/09 08:38:02;;;;;;;;;;;;;;;8.07;84.20;94324.45;109094;1274;22549;-83
2023/03/09 08:40:31;;;;;;;;;;;;;;;8.03;84.66;94326.23;109067;1274;22504;-83
2023/03/09 08:43:01;;;;;;;;;;;;;;;7.99;84.89;94328.94;109058;1273;22569;-83
2023/03/09 08:45:30;;;;;;;;;;;;;;;7.97;85.12;94335.56;109074;1271;22648;-84
2023/03/09 08:48:00;;;;;;;;;;;;;;;7.98;85.25;94332.42;109063;1274;22545;-83
2023/03/09 08:50:29;;;;;;;;;;;;;;;8.01;85.48;94331.58;109048;1274;22579;-83
2023/03/09 08:52:59;;;;;;;;;;;;;;;8.07;85.59;94322.61;109025;1273;22535;-83
2023/03/09 08:55:29;;;;;;;;;;;;;;;8.06;85.93;94326.81;109065;1274;22444;-83
2023/03/09 08:57:58;;;;;;;;;;;;;;;8.03;86.09;94328.93;109055;1274;22522;-84
2023/03/09 09:00:27;;;;;;;;;;;;;;;8.01;86.39;94319.80;109110;1274;22501;-83
2023/03/09 09:02:57;;;;;;;;;;;;;;;8.03;86.61;94322.57;109061;1273;22493;-83
2023/03/09 09:05:26;;;;;;;;;;;;;;;8.08;86.62;94324.31;109058;1267;22491;-83
2023/03/09 09:07:56;;;;;;;;;;;;;;;8.11;86.69;94325.04;109083;1274;23775;-83
2023/03/09 09:10:25;;;;;;;;;;;;;;;8.12;86.47;94325.44;109013;1273;25392;-83
2023/03/09 09:12:55;;;;;;;;;;;;;;;8.13;86.42;94317.33;109042;1256;73817;-83
2023/03/09 09:15:24;;;;;;;;;;;;;;;8.11;86.14;94321.33;109079;1274;24996;-84
2023/03/09 09:17:54;;;;;;;;;;;;;;;8.14;86.13;94315.48;109090;1274;22493;-84
2023/03/09 09:20:23;;;;;;;;;;;;;;;8.17;85.83;94307.91;109131;1274;23461;-83
2023/03/09 09:22:53;;;;;;;;;;;;;;;8.21;85.80;94306.97;109069;1274;22496;-83
2023/03/09 09:25:22;;;;;;;;;;;;;;;8.26;85.85;94310.52;109075;1272;23003;-83
2023/03/09 09:27:51;;;;;;;;;;;;;;;8.30;85.32;94297.13;109056;1274;25395;-83
2023/03/09 09:30:22;;;;;;;;;;;;;;;8.39;84.46;94301.75;109069;1274;22530;-83
2023/03/09 09:32:52;;;;;;;;;;;;;;;8.52;84.34;94305.42;109096;1273;24135;-83
2023/03/09 09:35:22;;;;;;;;;;;;;;;8.58;83.90;94303.92;109123;1262;22485;-82
2023/03/09 09:37:52;;;;;;;;;;;;;;;8.64;83.00;94286.70;109049;1274;22957;-83
2023/03/09 09:40:22;;;;;;;;;;;;;;;8.71;83.06;94304.91;109046;1272;22535;-83
2023/03/09 09:42:51;;;;;;;;;;;;;;;8.76;82.83;94298.55;109029;1274;59018;-83
2023/03/09 09:45:28;;;;;;;;;;;;;;;8.89;82.61;94298.09;109074;1274;22601;-82
2023/03/09 09:48:00;;;;;;;;;;;;;;;9.00;81.90;94296.71;109127;1274;22556;-83
2023/03/09 09:50:36;;;;;;;;;;;;;;;9.11;81.51;94285.51;109037;1274;25293;-83
2023/03/09 09:53:10;;;;;;;;;;;;;;;9.23;80.89;94271.77;109082;1273;52069;-82
2023/03/09 09:55:42;;;;;;;;;;;;;;;9.32;79.63;94281.46;109111;1273;22508;-82
2023/03/09 09:58:14;;;;;;;;;;;;;;;9.41;79.84;94298.60;109096;1263;22520;-82
2023/03/09 10:00:45;;;;;;;;;;;;;;;9.47;78.79;94287.25;109093;1273;22557;-82
2023/03/09 10:03:19;;;;;;;;;;;;;;;9.51;78.64;94297.73;109072;1271;22648;-81
2023/03/09 10:05:50;;;;;;;;;;;;;;;9.62;78.58;94300.37;109045;1274;22538;-82
2023/03/09 10:08:23;;;;;;;;;;;;;;;9.71;78.09;94297.84;109063;1274;22581;-82
2023/03/09 10:10:53;;;;;;;;;;;;;;;9.87;78.26;94305.54;109112;1274;22560;-82
2023/03/09 10:13:26;;;;;;;;;;;;;;;9.95;77.41;94305.19;109061;1274;33325;-82
2023/03/09 10:15:57;;;;;;;;;;;;;;;9.94;76.51;94300.77;109142;1266;23720;-82
2023/03/09 10:18:32;;;;;;;;;;;;;;;9.89;76.20;94313.20;109075;1274;25389;-82
2023/03/09 10:21:03;;;;;;;;;;;;;;;9.87;75.99;94310.15;109092;1271;23002;-81
2023/03/09 10:23:35;;;;;;;;;;;;;;;9.80;75.73;94313.17;109094;1273;22497;-82
2023/03/09 10:26:14;;;;;;;;;;;;;;;9.74;75.75;94318.76;109044;1272;22516;-82
2023/03/09 10:28:45;;;;;;;;;;;;;;;9.71;75.79;94320.30;109075;1274;22949;-82
2023/03/09 10:31:17;;;;;;;;;;;;;;;9.69;75.81;94324.98;109042;1274;23160;-82
2023/03/09 10:33:49;;;;;;;;;;;;;;;9.70;76.03;94319.96;109045;1273;24228;-82
2023/03/09 10:36:22;;;;;;;;;;;;;;;9.72;75.80;94319.96;109062;1269;22497;-82
2023/03/09 10:38:54;;;;;;;;;;;;;;;9.77;75.42;94321.56;109121;1272;22511;-82
2023/03/09 10:41:24;;;;;;;;;;;;;;;9.78;75.98;94327.05;109052;1269;22500;-81
2023/03/09 10:43:56;;;;;;;;;;;;;;;9.76;75.47;94308.38;109076;1272;22541;-81
2023/03/09 10:46:27;;;;;;;;;;;;;;;9.78;74.19;94325.75;109082;1274;22530;-81
2023/03/09 10:49:10;;;;;;;;;;;;;;;9.82;74.79;94334.88;109020;1268;22471;-81
2023/03/09 10:51:42;;;;;;;;;;;;;;;9.78;75.57;94336.58;109071;1273;22496;-82
2023/03/09 10:54:22;;;;;;;;;;;;;;;9.69;75.26;94316.38;109079;1271;22495;-81
2023/03/09 10:56:53;;;;;;;;;;;;;;;9.63;76.07;94335.09;109097;1272;23815;-80
2023/03/09 10:59:23;;;;;;;;;;;;;;;9.59;77.27;94349.09;109046;1274;25316;-80
2023/03/09 11:01:53;;;;;;;;;;;;;;;9.52;78.79;94362.29;109034;1268;22500;-80
2023/03/09 11:04:36;;;;;;;;;;;;;;;9.43;79.38;94345.08;109080;1274;22506;-81
2023/03/09 11:07:06;;;;;;;;;;;;;;;9.39;80.09;94369.79;109091;1274;22469;-81
2023/03/09 11:09:37;;;;;;;;;;;;;;;9.37;81.24;94367.98;109103;1274;23344;-82
2023/03/09 11:12:16;;;;;;;;;;;;;;;9.32;81.84;94381.84;109048;1274;22715;-81
2023/03/09 11:14:47;;;;;;;;;;;;;;;9.33;82.89;94381.05;109067;1274;22514;-82
2023/03/09 11:17:28;;;;;;;;;;;;;;;9.30;83.03;94383.23;109029;1267;22556;-82
2023/03/09 11:20:15;;;;;;;;;;;;;;;9.30;83.32;94393.80;109050;1274;22491;-81
2023/03/09 11:22:46;;;;;;;;;;;;;;;9.27;83.73;94399.54;109075;1273;25375;-81
2023/03/09 11:25:18;;;;;;;;;;;;;;;9.28;84.02;94402.98;109089;1274;22534;-82
2023/03/09 11:27:51;;;;;;;;;;;;;;;9.28;84.42;94410.63;109050;1272;22507;-82
2023/03/09 11:30:23;;;;;;;;;;;;;;;9.25;84.81;94412.71;109079;1270;22446;-82
2023/03/09 11:32:54;;;;;;;;;;;;;;;9.18;84.79;94415.80;109063;1273;40406;-82
2023/03/09 11:35:24;;;;;;;;;;;;;;;9.11;84.81;94428.45;109077;1274;22457;-82
2023/03/09 11:37:56;;;;;;;;;;;;;;;9.05;85.52;94442.96;109038;1272;22504;-82
2023/03/09 11:40:28;;;;;;;;;;;;;;;8.99;86.03;94436.00;109071;1274;23574;-81
2023/03/09 11:43:00;;;;;;;;;;;;;;;8.94;86.28;94445.57;109060;1273;25245;-82
2023/03/09 11:45:31;;;;;;;;;;;;;;;8.91;86.46;94454.67;109084;1274;22540;-82
2023/03/09 11:48:02;;;;;;;;;;;;;;;8.86;86.86;94459.09;109079;1274;24358;-81
2023/03/09 11:50:39;;;;;;;;;;;;;;;8.81;86.91;94463.27;109088;1274;24004;-82
2023/03/09 11:53:14;;;;;;;;;;;;;;;8.77;86.93;94469.02;109024;1272;24183;-81
2023/03/09 11:55:46;;;;;;;;;;;;;;;8.72;87.35;94483.73;109088;1267;22531;-81
2023/03/09 11:58:20;;;;;;;;;;;;;;;8.65;87.63;94481.80;109112;1274;22521;-81
2023/03/09 12:00:53;;;;;;;;;;;;;;;8.56;87.85;94495.10;109123;1270;22429;-83
2023/03/09 12:03:23;;;;;;;;;;;;;;;8.47;88.16;94502.23;109059;1274;24260;-83
2023/03/09 12:05:55;;;;;;;;;;;;;;;8.39;88.64;94504.30;109049;1270;22471;-81
2023/03/09 12:08:29;;;;;;;;;;;;;;;8.30;88.50;94518.64;109004;1274;22513;-82
2023/03/09 12:11:01;;;;;;;;;;;;;;;8.22;88.92;94528.10;109105;1274;22489;-82
2023/03/09 12:13:34;;;;;;;;;;;;;;;8.12;89.50;94543.58;109015;1268;22502;-82
2023/03/09 12:16:06;;;;;;;;;;;;;;;8.03;90.39;94537.85;109081;1274;22531;-82
2023/03/09 12:18:37;;;;;;;;;;;;;;;7.95;91.14;94559.12;109064;1274;22444;-82
2023/03/09 12:21:09;;;;;;;;;;;;;;;7.86;91.53;94565.45;109100;1272;22590;-82
2023/03/09 12:23:49;;;;;;;;;;;;;;;7.79;92.05;94565.52;107065;1274;2617895;-83
2023/03/09 12:26:24;;;;;;;;;;;;;;;7.71;92.59;94585.54;109087;1274;23937;-83
2023/03/09 12:29:01;;;;;;;;;;;;;;;7.65;93.00;94585.05;109084;1267;22621;-82
2023/03/09 12:31:32;;;;;;;;;;;;;;;7.60;92.77;94591.48;109053;1274;22509;-84
2023/03/09 12:34:24;;;;;;;;;;;;;;;7.55;92.93;94607.17;109063;1273;22573;-83
2023/03/09 12:36:54;;;;;;;;;;;;;;;7.51;93.08;94617.91;109103;1274;23178;-84
2023/03/09 12:39:39;;;;;;;;;;;;;;;7.50;92.99;94613.41;109030;1274;22471;-83
2023/03/09 12:42:22;;;;;;;;;;;;;;;7.45;92.71;94621.64;109081;1274;24183;-82
2023/03/09 12:44:59;;;;;;;;;;;;;;;7.38;92.64;94633.57;109064;1273;23418;-82
2023/03/09 12:47:36;;;;;;;;;;;;;;;7.34;92.15;94639.67;109104;1273;22640;-83
2023/03/09 12:50:06;;;;;;;;;;;;;;;7.33;92.52;94641.97;109045;1273;23265;-83
2023/03/09 12:52:56;;;;;;;;;;;;;;;7.35;92.60;94649.41;109055;1274;24972;-83
2023/03/09 12:55:42;;;;;;;;;;;;;;;7.37;92.70;94657.10;109080;1267;22499;-83
2023/03/09 12:58:44;;;;;;;;;;;;;;;7.42;92.93;94665.23;109065;1274;22505;-83
2023/03/09 13:01:29;;;;;;;;;;;;;;;7.46;92.96;94661.06;108666;1278;22498;-82
2023/03/09 13:04:13;;;;;;;;;;;;;;;7.49;92.78;94683.66;108723;1274;22540;-82